sensor_id;sensor_type;location;lat;lon;timestamp;pressure;altitude;pressure_sealevel;temperature;humidity
61488;BME280;47351;53.326;-6.298;2022-11-15T00:00:20;98792.70;;;10.82;100.00
61488;BME280;47351;53.326;-6.298;2022-11-15T00:03:28;98787.84;;;10.84;100.00
61488;BME280;47351;53.326;-6.298;2022-11-15T00:06:39;98787.20;;;10.86;100.00
61488;BME280;47351;53.326;-6.298;2022-11-15T00:09:51;98781.82;;;10.88;100.00
61488;BME280;47351;53.326;-6.298;2022-11-15T00:13:05;98772.38;;;10.89;100.00
61488;BME280;47351;53.326;-6.298;2022-11-15T00:16:13;98760.23;;;10.91;100.00
61488;BME280;47351;53.326;-6.298;2022-11-15T00:19:22;98753.06;;;10.92;100.00
61488;BME280;47351;53.326;-6.298;2022-11-15T00:22:33;98745.85;;;10.94;100.00
61488;BME280;47351;53.326;-6.298;2022-11-15T00:25:42;98749.44;;;10.95;100.00
61488;BME280;47351;53.326;-6.298;2022-11-15T00:28:52;98744.36;;;10.97;100.00
61488;BME280;47351;53.326;-6.298;2022-11-15T00:32:01;98729.33;;;10.99;100.00
61488;BME280;47351;53.326;-6.298;2022-11-15T00:35:09;98723.23;;;11.00;100.00
61488;BME280;47351;53.326;-6.298;2022-11-15T00:38:18;98722.77;;;11.02;100.00
61488;BME280;47351;53.326;-6.298;2022-11-15T00:41:26;98711.14;;;11.04;100.00
61488;BME280;47351;53.326;-6.298;2022-11-15T00:44:34;98699.77;;;11.06;100.00
61488;BME280;47351;53.326;-6.298;2022-11-15T00:47:44;98692.50;;;11.08;100.00
61488;BME280;47351;53.326;-6.298;2022-11-15T00:50:53;98687.06;;;11.10;100.00
61488;BME280;47351;53.326;-6.298;2022-11-15T00:54:02;98686.95;;;11.11;100.00
61488;BME280;47351;53.326;-6.298;2022-11-15T00:57:16;98675.89;;;11.12;100.00
61488;BME280;47351;53.326;-6.298;2022-11-15T01:00:25;98664.73;;;11.12;100.00
61488;BME280;47351;53.326;-6.298;2022-11-15T01:03:37;98666.03;;;11.15;100.00
61488;BME280;47351;53.326;-6.298;2022-11-15T01:06:48;98664.58;;;11.18;100.00
61488;BME280;47351;53.326;-6.298;2022-11-15T01:09:57;98666.76;;;11.20;100.00
61488;BME280;47351;53.326;-6.298;2022-11-15T01:13:26;98657.63;;;11.22;100.00
61488;BME280;47351;53.326;-6.298;2022-11-15T01:20:59;98645.16;;;11.23;100.00
61488;BME280;47351;53.326;-6.298;2022-11-15T01:25:06;98645.07;;;11.23;100.00
61488;BME280;47351;53.326;-6.298;2022-11-15T01:28:55;98623.96;;;11.25;100.00
61488;BME280;47351;53.326;-6.298;2022-11-15T01:32:36;98613.46;;;11.26;100.00
61488;BME280;47351;53.326;-6.298;2022-11-15T01:35:48;98608.17;;;11.27;100.00
61488;BME280;47351;53.326;-6.298;2022-11-15T01:39:00;98605.04;;;11.29;100.00
61488;BME280;47351;53.326;-6.298;2022-11-15T01:42:13;98599.09;;;11.30;100.00
61488;BME280;47351;53.326;-6.298;2022-11-15T01:45:21;98594.13;;;11.31;100.00
61488;BME280;47351;53.326;-6.298;2022-11-15T01:48:33;98589.72;;;11.33;100.00
61488;BME280;47351;53.326;-6.298;2022-11-15T01:51:42;98579.48;;;11.36;100.00
61488;BME280;47351;53.326;-6.298;2022-11-15T01:54:54;98570.65;;;11.38;100.00
61488;BME280;47351;53.326;-6.298;2022-11-15T01:58:06;98576.94;;;11.40;100.00
61488;BME280;47351;53.326;-6.298;2022-11-15T02:01:15;98621.99;;;11.37;100.00
61488;BME280;47351;53.326;-6.298;2022-11-15T02:04:26;98661.84;;;11.01;97.76
61488;BME280;47351;53.326;-6.298;2022-11-15T02:07:36;98664.38;;;10.61;96.66
61488;BME280;47351;53.326;-6.298;2022-11-15T02:10:45;98674.26;;;10.27;97.02
61488;BME280;47351;53.326;-6.298;2022-11-15T02:13:54;98679.66;;;10.02;97.58
61488;BME280;47351;53.326;-6.298;2022-11-15T02:17:16;98701.44;;;9.85;98.14
61488;BME280;47351;53.326;-6.298;2022-11-15T02:20:57;98706.86;;;9.65;98.21
61488;BME280;47351;53.326;-6.298;2022-11-15T02:24:48;98719.47;;;9.48;98.25
61488;BME280;47351;53.326;-6.298;2022-11-15T02:28:22;98719.38;;;9.28;98.01
61488;BME280;47351;53.326;-6.298;2022-11-15T02:31:50;98719.42;;;9.11;97.96
61488;BME280;47351;53.326;-6.298;2022-11-15T02:35:27;98716.42;;;9.04;98.30
61488;BME280;47351;53.326;-6.298;2022-11-15T02:38:47;98721.11;;;8.98;98.55
61488;BME280;47351;53.326;-6.298;2022-11-15T02:42:23;98723.77;;;8.94;98.80
61488;BME280;47351;53.326;-6.298;2022-11-15T02:46:14;98728.88;;;8.90;98.89
61488;BME280;47351;53.326;-6.298;2022-11-15T02:50:01;98723.87;;;8.85;98.86
61488;BME280;47351;53.326;-6.298;2022-11-15T02:53:16;98734.83;;;8.79;98.69
61488;BME280;47351;53.326;-6.298;2022-11-15T02:56:25;98741.54;;;8.74;98.60
61488;BME280;47351;53.326;-6.298;2022-11-15T02:59:48;98748.04;;;8.71;98.55
61488;BME280;47351;53.326;-6.298;2022-11-15T03:03:16;98744.52;;;8.66;98.64
61488;BME280;47351;53.326;-6.298;2022-11-15T03:06:36;98738.59;;;8.64;98.76
61488;BME280;47351;53.326;-6.298;2022-11-15T03:09:54;98735.63;;;8.59;98.62
61488;BME280;47351;53.326;-6.298;2022-11-15T03:13:15;98735.21;;;8.53;98.52
61488;BME280;47351;53.326;-6.298;2022-11-15T03:16:39;98733.81;;;8.46;98.47
61488;BME280;47351;53.326;-6.298;2022-11-15T03:19:55;98740.27;;;8.40;98.39
61488;BME280;47351;53.326;-6.298;2022-11-15T03:23:17;98740.98;;;8.35;98.43
61488;BME280;47351;53.326;-6.298;2022-11-15T03:26:28;98744.54;;;8.32;98.36
61488;BME280;47351;53.326;-6.298;2022-11-15T03:29:41;98747.48;;;8.30;98.33
61488;BME280;47351;53.326;-6.298;2022-11-15T03:32:54;98757.23;;;8.30;98.38
61488;BME280;47351;53.326;-6.298;2022-11-15T03:36:04;98758.69;;;8.28;97.99
61488;BME280;47351;53.326;-6.298;2022-11-15T03:39:16;98756.11;;;8.25;97.42
61488;BME280;47351;53.326;-6.298;2022-11-15T03:42:32;98753.92;;;8.19;97.20
61488;BME280;47351;53.326;-6.298;2022-11-15T03:46:01;98752.83;;;8.15;97.21
61488;BME280;47351;53.326;-6.298;2022-11-15T03:49:17;98740.29;;;8.12;97.14
61488;BME280;47351;53.326;-6.298;2022-11-15T03:56:14;98732.14;;;8.06;96.60
61488;BME280;47351;53.326;-6.298;2022-11-15T03:59:22;98730.34;;;8.05;96.60
61488;BME280;47351;53.326;-6.298;2022-11-15T04:02:35;98731.92;;;8.03;96.62
61488;BME280;47351;53.326;-6.298;2022-11-15T04:05:43;98729.73;;;8.03;96.67
61488;BME280;47351;53.326;-6.298;2022-11-15T04:08:51;98723.41;;;8.00;96.68
61488;BME280;47351;53.326;-6.298;2022-11-15T04:12:00;98724.83;;;7.99;96.76
61488;BME280;47351;53.326;-6.298;2022-11-15T04:15:11;98723.16;;;7.97;96.81
61488;BME280;47351;53.326;-6.298;2022-11-15T04:18:20;98719.13;;;7.95;96.76
61488;BME280;47351;53.326;-6.298;2022-11-15T04:21:28;98717.84;;;7.92;96.58
61488;BME280;47351;53.326;-6.298;2022-11-15T04:24:54;98717.85;;;7.89;96.46
61488;BME280;47351;53.326;-6.298;2022-11-15T04:28:04;98720.65;;;7.86;96.47
61488;BME280;47351;53.326;-6.298;2022-11-15T04:31:12;98722.48;;;7.85;96.35
61488;BME280;47351;53.326;-6.298;2022-11-15T04:34:20;98727.51;;;7.83;96.38
61488;BME280;47351;53.326;-6.298;2022-11-15T04:37:28;98736.34;;;7.82;96.27
61488;BME280;47351;53.326;-6.298;2022-11-15T04:40:37;98738.98;;;7.81;96.43
61488;BME280;47351;53.326;-6.298;2022-11-15T04:43:46;98746.03;;;7.80;96.26
61488;BME280;47351;53.326;-6.298;2022-11-15T04:46:54;98747.61;;;7.78;96.12
61488;BME280;47351;53.326;-6.298;2022-11-15T04:50:24;98744.08;;;7.77;96.18
61488;BME280;47351;53.326;-6.298;2022-11-15T04:53:32;98730.94;;;7.75;95.94
61488;BME280;47351;53.326;-6.298;2022-11-15T04:56:41;98723.10;;;7.74;95.76
61488;BME280;47351;53.326;-6.298;2022-11-15T04:59:52;98723.56;;;7.72;95.70
61488;BME280;47351;53.326;-6.298;2022-11-15T05:03:10;98722.90;;;7.70;95.46
61488;BME280;47351;53.326;-6.298;2022-11-15T05:06:38;98726.48;;;7.68;95.48
61488;BME280;47351;53.326;-6.298;2022-11-15T05:09:46;98726.59;;;7.67;95.45
61488;BME280;47351;53.326;-6.298;2022-11-15T05:12:55;98742.16;;;7.66;95.44
61488;BME280;47351;53.326;-6.298;2022-11-15T05:16:03;98744.03;;;7.66;95.35
61488;BME280;47351;53.326;-6.298;2022-11-15T05:19:11;98741.39;;;7.64;95.32
61488;BME280;47351;53.326;-6.298;2022-11-15T05:22:20;98750.83;;;7.62;95.12
61488;BME280;47351;53.326;-6.298;2022-11-15T05:25:28;98763.45;;;7.61;95.11
61488;BME280;47351;53.326;-6.298;2022-11-15T05:28:37;98765.21;;;7.59;95.10
61488;BME280;47351;53.326;-6.298;2022-11-15T05:31:45;98761.77;;;7.59;94.99
61488;BME280;47351;53.326;-6.298;2022-11-15T05:34:55;98765.21;;;7.58;95.03
61488;BME280;47351;53.326;-6.298;2022-11-15T05:38:03;98777.66;;;7.58;95.01
61488;BME280;47351;53.326;-6.298;2022-11-15T05:41:12;98788.59;;;7.57;95.02
61488;BME280;47351;53.326;-6.298;2022-11-15T05:44:23;98794.39;;;7.56;95.02
61488;BME280;47351;53.326;-6.298;2022-11-15T05:47:34;98803.66;;;7.54;94.92
61488;BME280;47351;53.326;-6.298;2022-11-15T05:50:46;98807.57;;;7.53;94.77
61488;BME280;47351;53.326;-6.298;2022-11-15T05:53:56;98806.34;;;7.51;94.70
61488;BME280;47351;53.326;-6.298;2022-11-15T05:57:05;98803.45;;;7.50;94.55
61488;BME280;47351;53.326;-6.298;2022-11-15T06:00:14;98794.01;;;7.49;94.48
61488;BME280;47351;53.326;-6.298;2022-11-15T06:03:22;98792.69;;;7.48;94.33
61488;BME280;47351;53.326;-6.298;2022-11-15T06:06:31;98803.10;;;7.46;94.17
61488;BME280;47351;53.326;-6.298;2022-11-15T06:09:39;98808.66;;;7.44;93.87
61488;BME280;47351;53.326;-6.298;2022-11-15T06:12:48;98819.94;;;7.41;93.79
61488;BME280;47351;53.326;-6.298;2022-11-15T06:16:03;98812.48;;;7.40;93.69
61488;BME280;47351;53.326;-6.298;2022-11-15T06:19:12;98800.77;;;7.37;93.50
61488;BME280;47351;53.326;-6.298;2022-11-15T06:22:20;98803.33;;;7.35;93.40
61488;BME280;47351;53.326;-6.298;2022-11-15T06:25:30;98820.95;;;7.33;93.27
61488;BME280;47351;53.326;-6.298;2022-11-15T06:28:38;98811.83;;;7.30;93.09
61488;BME280;47351;53.326;-6.298;2022-11-15T06:31:47;98811.92;;;7.28;93.11
61488;BME280;47351;53.326;-6.298;2022-11-15T06:34:54;98811.15;;;7.26;92.98
61488;BME280;47351;53.326;-6.298;2022-11-15T06:38:04;98810.46;;;7.23;92.75
61488;BME280;47351;53.326;-6.298;2022-11-15T06:41:14;98808.95;;;7.20;92.67
61488;BME280;47351;53.326;-6.298;2022-11-15T06:44:22;98807.27;;;7.18;92.57
61488;BME280;47351;53.326;-6.298;2022-11-15T06:47:31;98814.15;;;7.15;92.53
61488;BME280;47351;53.326;-6.298;2022-11-15T06:50:39;98817.61;;;7.13;92.42
61488;BME280;47351;53.326;-6.298;2022-11-15T06:53:48;98816.70;;;7.12;92.29
61488;BME280;47351;53.326;-6.298;2022-11-15T06:56:57;98819.60;;;7.10;92.07
61488;BME280;47351;53.326;-6.298;2022-11-15T07:00:07;98824.50;;;7.09;91.92
61488;BME280;47351;53.326;-6.298;2022-11-15T07:03:15;98835.33;;;7.08;91.88
61488;BME280;47351;53.326;-6.298;2022-11-15T07:06:27;98839.90;;;7.07;91.85
61488;BME280;47351;53.326;-6.298;2022-11-15T07:09:35;98846.91;;;7.06;91.71
61488;BME280;47351;53.326;-6.298;2022-11-15T07:12:47;98849.64;;;7.04;91.62
61488;BME280;47351;53.326;-6.298;2022-11-15T07:15:56;98849.81;;;7.02;91.51
61488;BME280;47351;53.326;-6.298;2022-11-15T07:19:05;98842.98;;;7.00;91.43
61488;BME280;47351;53.326;-6.298;2022-11-15T07:22:12;98847.45;;;6.98;91.26
61488;BME280;47351;53.326;-6.298;2022-11-15T07:25:21;98846.06;;;6.96;90.94
61488;BME280;47351;53.326;-6.298;2022-11-15T07:28:30;98837.95;;;6.94;90.77
61488;BME280;47351;53.326;-6.298;2022-11-15T07:31:39;98841.96;;;6.92;90.75
61488;BME280;47351;53.326;-6.298;2022-11-15T07:34:48;98845.77;;;6.90;90.82
61488;BME280;47351;53.326;-6.298;2022-11-15T07:37:58;98844.77;;;6.86;90.84
61488;BME280;47351;53.326;-6.298;2022-11-15T07:41:07;98838.61;;;6.81;90.81
61488;BME280;47351;53.326;-6.298;2022-11-15T07:44:16;98837.74;;;6.76;90.98
61488;BME280;47351;53.326;-6.298;2022-11-15T07:47:24;98848.14;;;6.71;90.87
61488;BME280;47351;53.326;-6.298;2022-11-15T07:50:33;98850.98;;;6.66;90.88
61488;BME280;47351;53.326;-6.298;2022-11-15T07:53:42;98850.55;;;6.62;90.85
61488;BME280;47351;53.326;-6.298;2022-11-15T07:56:51;98851.71;;;6.59;90.81
61488;BME280;47351;53.326;-6.298;2022-11-15T07:59:59;98849.90;;;6.55;90.78
61488;BME280;47351;53.326;-6.298;2022-11-15T08:03:09;98848.27;;;6.50;90.73
61488;BME280;47351;53.326;-6.298;2022-11-15T08:06:17;98850.27;;;6.46;90.85
61488;BME280;47351;53.326;-6.298;2022-11-15T08:09:26;98854.63;;;6.42;90.97
61488;BME280;47351;53.326;-6.298;2022-11-15T08:12:34;98859.36;;;6.40;90.99
61488;BME280;47351;53.326;-6.298;2022-11-15T08:15:43;98866.37;;;6.39;91.13
61488;BME280;47351;53.326;-6.298;2022-11-15T08:18:51;98870.97;;;6.37;91.11
61488;BME280;47351;53.326;-6.298;2022-11-15T08:22:03;98866.69;;;6.36;90.98
61488;BME280;47351;53.326;-6.298;2022-11-15T08:25:11;98855.84;;;6.35;90.88
61488;BME280;47351;53.326;-6.298;2022-11-15T08:28:20;98851.14;;;6.33;90.77
61488;BME280;47351;53.326;-6.298;2022-11-15T08:31:28;98860.16;;;6.33;90.79
61488;BME280;47351;53.326;-6.298;2022-11-15T08:34:42;98866.21;;;6.33;90.72
61488;BME280;47351;53.326;-6.298;2022-11-15T08:37:53;98870.97;;;6.33;90.60
61488;BME280;47351;53.326;-6.298;2022-11-15T08:41:03;98878.30;;;6.35;90.30
61488;BME280;47351;53.326;-6.298;2022-11-15T08:44:11;98877.67;;;6.39;89.92
61488;BME280;47351;53.326;-6.298;2022-11-15T08:47:20;98873.62;;;6.44;89.69
61488;BME280;47351;53.326;-6.298;2022-11-15T08:50:28;98870.13;;;6.48;89.52
61488;BME280;47351;53.326;-6.298;2022-11-15T08:53:37;98871.58;;;6.52;89.37
61488;BME280;47351;53.326;-6.298;2022-11-15T08:56:45;98867.20;;;6.55;88.98
61488;BME280;47351;53.326;-6.298;2022-11-15T08:59:56;98865.52;;;6.57;88.70
61488;BME280;47351;53.326;-6.298;2022-11-15T09:03:04;98862.85;;;6.59;88.59
61488;BME280;47351;53.326;-6.298;2022-11-15T09:06:13;98858.08;;;6.57;88.65
61488;BME280;47351;53.326;-6.298;2022-11-15T09:09:22;98857.36;;;6.56;88.78
61488;BME280;47351;53.326;-6.298;2022-11-15T09:12:31;98854.77;;;6.55;88.74
61488;BME280;47351;53.326;-6.298;2022-11-15T09:15:39;98852.14;;;6.57;88.80
61488;BME280;47351;53.326;-6.298;2022-11-15T09:18:47;98848.78;;;6.60;88.74
61488;BME280;47351;53.326;-6.298;2022-11-15T09:21:57;98844.57;;;6.64;88.57
61488;BME280;47351;53.326;-6.298;2022-11-15T09:25:07;98837.98;;;6.71;88.22
61488;BME280;47351;53.326;-6.298;2022-11-15T09:28:18;98833.19;;;6.83;87.88
61488;BME280;47351;53.326;-6.298;2022-11-15T09:31:29;98838.33;;;6.97;87.59
61488;BME280;47351;53.326;-6.298;2022-11-15T09:34:38;98839.70;;;7.13;87.29
61488;BME280;47351;53.326;-6.298;2022-11-15T09:37:46;98840.10;;;7.26;87.10
61488;BME280;47351;53.326;-6.298;2022-11-15T09:41:34;98833.58;;;7.37;86.90
61488;BME280;47351;53.326;-6.298;2022-11-15T09:44:58;98828.58;;;7.52;86.44
61488;BME280;47351;53.326;-6.298;2022-11-15T09:48:38;98824.99;;;7.66;85.94
61488;BME280;47351;53.326;-6.298;2022-11-15T09:51:58;98822.16;;;7.83;85.40
61488;BME280;47351;53.326;-6.298;2022-11-15T09:54:59;98816.48;;;8.06;84.97
61488;BME280;47351;53.326;-6.298;2022-11-15T09:58:21;98807.23;;;8.34;84.11
61488;BME280;47351;53.326;-6.298;2022-11-15T10:01:32;98805.30;;;8.64;83.48
61488;BME280;47351;53.326;-6.298;2022-11-15T10:04:27;98802.97;;;8.91;82.98
61488;BME280;47351;53.326;-6.298;2022-11-15T10:07:22;98804.45;;;9.18;82.24
61488;BME280;47351;53.326;-6.298;2022-11-15T10:10:20;98808.66;;;9.37;81.74
61488;BME280;47351;53.326;-6.298;2022-11-15T10:13:16;98810.19;;;9.55;81.04
61488;BME280;47351;53.326;-6.298;2022-11-15T10:16:21;98805.48;;;9.69;80.04
61488;BME280;47351;53.326;-6.298;2022-11-15T10:22:31;98810.57;;;9.88;79.28
61488;BME280;47351;53.326;-6.298;2022-11-15T10:28:54;98802.55;;;9.78;77.92
61488;BME280;47351;53.326;-6.298;2022-11-15T10:36:43;98790.80;;;9.69;77.63
61488;BME280;47351;53.326;-6.298;2022-11-15T10:39:40;98785.98;;;9.66;77.51
61488;BME280;47351;53.326;-6.298;2022-11-15T10:42:30;98786.80;;;9.61;77.05
61488;BME280;47351;53.326;-6.298;2022-11-15T10:45:44;98786.26;;;9.53;76.59
61488;BME280;47351;53.326;-6.298;2022-11-15T10:48:38;98780.83;;;9.44;76.60
61488;BME280;47351;53.326;-6.298;2022-11-15T10:51:33;98782.12;;;9.37;76.57
61488;BME280;47351;53.326;-6.298;2022-11-15T10:54:37;98780.81;;;9.32;76.38
61488;BME280;47351;53.326;-6.298;2022-11-15T10:57:48;98782.95;;;9.26;76.09
61488;BME280;47351;53.326;-6.298;2022-11-15T11:00:57;98777.80;;;9.23;75.82
61488;BME280;47351;53.326;-6.298;2022-11-15T11:14:46;98774.49;;;9.42;74.42
61488;BME280;47351;53.326;-6.298;2022-11-15T11:17:51;98767.08;;;11.33;71.73
61488;BME280;47351;53.326;-6.298;2022-11-15T11:20:46;98753.37;;;14.99;65.90
61488;BME280;47351;53.326;-6.298;2022-11-15T11:23:44;98736.39;;;17.98;61.31
61488;BME280;47351;53.326;-6.298;2022-11-15T11:26:42;98730.30;;;20.49;56.45
61488;BME280;47351;53.326;-6.298;2022-11-15T11:29:44;98726.63;;;22.72;53.33
61488;BME280;47351;53.326;-6.298;2022-11-15T11:32:47;98725.59;;;24.64;50.41
61488;BME280;47351;53.326;-6.298;2022-11-15T11:35:46;98718.30;;;26.36;47.40
61488;BME280;47351;53.326;-6.298;2022-11-15T11:38:50;98714.13;;;27.37;44.51
61488;BME280;47351;53.326;-6.298;2022-11-15T11:41:50;98710.85;;;28.41;42.38
61488;BME280;47351;53.326;-6.298;2022-11-15T11:44:49;98698.47;;;29.33;40.01
61488;BME280;47351;53.326;-6.298;2022-11-15T11:47:47;98685.65;;;30.10;38.11
61488;BME280;47351;53.326;-6.298;2022-11-15T11:50:38;98679.89;;;30.86;37.09
61488;BME280;47351;53.326;-6.298;2022-11-15T11:53:31;98674.45;;;31.53;35.73
61488;BME280;47351;53.326;-6.298;2022-11-15T11:56:26;98672.91;;;32.00;33.59
61488;BME280;47351;53.326;-6.298;2022-11-15T11:59:23;98673.13;;;32.49;33.34
61488;BME280;47351;53.326;-6.298;2022-11-15T12:02:18;98676.33;;;33.10;32.16
61488;BME280;47351;53.326;-6.298;2022-11-15T12:05:16;98666.30;;;33.53;31.17
61488;BME280;47351;53.326;-6.298;2022-11-15T12:08:24;98666.64;;;33.78;30.12
61488;BME280;47351;53.326;-6.298;2022-11-15T12:11:17;98672.70;;;33.80;28.27
61488;BME280;47351;53.326;-6.298;2022-11-15T12:14:16;98675.96;;;33.69;28.12
61488;BME280;47351;53.326;-6.298;2022-11-15T12:17:07;98673.46;;;33.67;27.51
61488;BME280;47351;53.326;-6.298;2022-11-15T12:19:58;98673.45;;;33.50;27.09
61488;BME280;47351;53.326;-6.298;2022-11-15T12:22:54;98668.62;;;33.31;26.20
61488;BME280;47351;53.326;-6.298;2022-11-15T12:25:49;98660.98;;;33.22;26.30
61488;BME280;47351;53.326;-6.298;2022-11-15T12:28:44;98653.77;;;33.19;25.73
61488;BME280;47351;53.326;-6.298;2022-11-15T12:31:56;98656.21;;;31.95;25.18
61488;BME280;47351;53.326;-6.298;2022-11-15T12:34:49;98650.02;;;29.54;26.32
61488;BME280;47351;53.326;-6.298;2022-11-15T12:37:50;98644.45;;;27.28;27.92
61488;BME280;47351;53.326;-6.298;2022-11-15T12:41:12;98634.96;;;25.30;29.30
61488;BME280;47351;53.326;-6.298;2022-11-15T12:44:03;98637.65;;;23.46;30.62
61488;BME280;47351;53.326;-6.298;2022-11-15T12:47:21;98634.92;;;22.63;32.05
61488;BME280;47351;53.326;-6.298;2022-11-15T12:50:14;98629.48;;;22.38;32.51
61488;BME280;47351;53.326;-6.298;2022-11-15T12:53:26;98631.49;;;22.20;32.64
61488;BME280;47351;53.326;-6.298;2022-11-15T12:56:21;98632.63;;;21.89;32.79
61488;BME280;47351;53.326;-6.298;2022-11-15T12:59:10;98633.91;;;21.57;32.77
61488;BME280;47351;53.326;-6.298;2022-11-15T13:02:21;98632.63;;;21.43;33.04
61488;BME280;47351;53.326;-6.298;2022-11-15T13:05:52;98626.50;;;21.50;33.47
61488;BME280;47351;53.326;-6.298;2022-11-15T13:08:45;98623.95;;;21.59;33.38
61488;BME280;47351;53.326;-6.298;2022-11-15T13:11:51;98618.19;;;21.75;33.78
61488;BME280;47351;53.326;-6.298;2022-11-15T13:14:46;98616.80;;;21.70;33.55
61488;BME280;47351;53.326;-6.298;2022-11-15T13:17:37;98610.15;;;20.70;34.10
61488;BME280;47351;53.326;-6.298;2022-11-15T13:20:29;98610.05;;;19.84;35.11
61488;BME280;47351;53.326;-6.298;2022-11-15T13:23:18;98602.56;;;19.94;35.42
61488;BME280;47351;53.326;-6.298;2022-11-15T13:26:13;98601.98;;;19.78;35.35
61488;BME280;47351;53.326;-6.298;2022-11-15T13:29:12;98607.02;;;19.03;35.94
61488;BME280;47351;53.326;-6.298;2022-11-15T13:32:09;98606.86;;;18.38;36.93
61488;BME280;47351;53.326;-6.298;2022-11-15T13:35:01;98609.65;;;17.41;37.79
61488;BME280;47351;53.326;-6.298;2022-11-15T13:37:51;98610.85;;;16.47;38.77
61488;BME280;47351;53.326;-6.298;2022-11-15T13:40:41;98617.92;;;15.73;40.00
61488;BME280;47351;53.326;-6.298;2022-11-15T13:43:33;98624.77;;;15.15;40.86
61488;BME280;47351;53.326;-6.298;2022-11-15T13:46:26;98623.48;;;15.17;41.17
61488;BME280;47351;53.326;-6.298;2022-11-15T13:49:15;98613.95;;;15.50;41.17
61488;BME280;47351;53.326;-6.298;2022-11-15T13:52:08;98608.17;;;15.64;40.94
61488;BME280;47351;53.326;-6.298;2022-11-15T13:55:02;98607.52;;;15.82;41.11
61488;BME280;47351;53.326;-6.298;2022-11-15T13:57:54;98604.07;;;15.95;41.21
61488;BME280;47351;53.326;-6.298;2022-11-15T14:00:45;98602.34;;;16.01;41.29
61488;BME280;47351;53.326;-6.298;2022-11-15T14:03:51;98601.55;;;16.00;41.45
61488;BME280;47351;53.326;-6.298;2022-11-15T14:06:46;98595.77;;;15.56;41.73
61488;BME280;47351;53.326;-6.298;2022-11-15T14:09:38;98597.73;;;14.98;42.92
61488;BME280;47351;53.326;-6.298;2022-11-15T14:12:51;98595.55;;;14.50;43.60
61488;BME280;47351;53.326;-6.298;2022-11-15T14:15:41;98599.41;;;14.06;44.15
61488;BME280;47351;53.326;-6.298;2022-11-15T14:18:43;98596.03;;;13.78;44.62
61488;BME280;47351;53.326;-6.298;2022-11-15T14:21:34;98596.29;;;13.58;45.23
61488;BME280;47351;53.326;-6.298;2022-11-15T14:24:30;98594.01;;;13.35;45.45
61488;BME280;47351;53.326;-6.298;2022-11-15T14:27:23;98588.29;;;13.13;45.96
61488;BME280;47351;53.326;-6.298;2022-11-15T14:30:16;98589.34;;;12.94;46.22
61488;BME280;47351;53.326;-6.298;2022-11-15T14:33:19;98585.77;;;12.82;46.69
61488;BME280;47351;53.326;-6.298;2022-11-15T14:36:13;98588.25;;;12.68;46.99
61488;BME280;47351;53.326;-6.298;2022-11-15T14:39:03;98587.95;;;12.53;47.29
61488;BME280;47351;53.326;-6.298;2022-11-15T14:41:54;98584.79;;;12.38;47.74
61488;BME280;47351;53.326;-6.298;2022-11-15T14:44:43;98583.02;;;12.26;48.09
61488;BME280;47351;53.326;-6.298;2022-11-15T14:47:34;98578.83;;;12.16;49.10
61488;BME280;47351;53.326;-6.298;2022-11-15T14:50:24;98579.06;;;12.03;49.53
61488;BME280;47351;53.326;-6.298;2022-11-15T14:53:14;98578.60;;;11.88;49.80
61488;BME280;47351;53.326;-6.298;2022-11-15T14:56:04;98578.61;;;11.73;50.27
61488;BME280;47351;53.326;-6.298;2022-11-15T14:58:54;98569.54;;;11.58;50.73
61488;BME280;47351;53.326;-6.298;2022-11-15T15:01:43;98567.06;;;11.45;51.22
61488;BME280;47351;53.326;-6.298;2022-11-15T15:04:33;98566.64;;;11.34;51.46
61488;BME280;47351;53.326;-6.298;2022-11-15T15:07:22;98568.45;;;11.26;51.81
61488;BME280;47351;53.326;-6.298;2022-11-15T15:10:13;98564.33;;;11.18;52.41
61488;BME280;47351;53.326;-6.298;2022-11-15T15:13:24;98559.67;;;11.11;52.89
61488;BME280;47351;53.326;-6.298;2022-11-15T15:16:14;98558.27;;;11.03;53.25
61488;BME280;47351;53.326;-6.298;2022-11-15T15:19:04;98559.02;;;10.95;53.41
61488;BME280;47351;53.326;-6.298;2022-11-15T15:21:53;98556.88;;;10.86;53.52
61488;BME280;47351;53.326;-6.298;2022-11-15T15:24:43;98557.48;;;10.78;53.77
61488;BME280;47351;53.326;-6.298;2022-11-15T15:27:33;98554.10;;;10.69;54.02
61488;BME280;47351;53.326;-6.298;2022-11-15T15:30:22;98555.33;;;10.58;54.39
61488;BME280;47351;53.326;-6.298;2022-11-15T15:33:12;98552.98;;;10.48;54.62
61488;BME280;47351;53.326;-6.298;2022-11-15T15:36:02;98551.44;;;10.39;54.97
61488;BME280;47351;53.326;-6.298;2022-11-15T15:38:53;98549.70;;;10.31;55.14
61488;BME280;47351;53.326;-6.298;2022-11-15T15:41:43;98548.91;;;10.24;55.35
61488;BME280;47351;53.326;-6.298;2022-11-15T15:44:33;98548.16;;;10.18;55.63
61488;BME280;47351;53.326;-6.298;2022-11-15T15:47:24;98543.11;;;10.13;55.72
61488;BME280;47351;53.326;-6.298;2022-11-15T15:50:20;98537.57;;;10.08;55.98
61488;BME280;47351;53.326;-6.298;2022-11-15T15:53:11;98537.58;;;10.03;56.52
61488;BME280;47351;53.326;-6.298;2022-11-15T15:56:01;98537.58;;;9.95;56.69
61488;BME280;47351;53.326;-6.298;2022-11-15T15:58:51;98532.41;;;9.86;56.90
61488;BME280;47351;53.326;-6.298;2022-11-15T16:01:41;98539.02;;;9.77;57.10
61488;BME280;47351;53.326;-6.298;2022-11-15T16:04:31;98537.19;;;9.70;57.63
61488;BME280;47351;53.326;-6.298;2022-11-15T16:07:22;98532.05;;;9.63;57.99
61488;BME280;47351;53.326;-6.298;2022-11-15T16:10:19;98530.44;;;9.54;58.31
61488;BME280;47351;53.326;-6.298;2022-11-15T16:13:09;98525.05;;;9.46;58.45
61488;BME280;47351;53.326;-6.298;2022-11-15T16:15:59;98522.49;;;9.39;58.71
61488;BME280;47351;53.326;-6.298;2022-11-15T16:18:49;98520.52;;;9.32;58.91
61488;BME280;47351;53.326;-6.298;2022-11-15T16:21:38;98518.83;;;9.26;59.20
61488;BME280;47351;53.326;-6.298;2022-11-15T16:24:28;98518.93;;;9.20;59.38
61488;BME280;47351;53.326;-6.298;2022-11-15T16:27:19;98515.69;;;9.13;59.85
61488;BME280;47351;53.326;-6.298;2022-11-15T16:30:13;98509.84;;;9.07;60.24
61488;BME280;47351;53.326;-6.298;2022-11-15T16:33:03;98507.73;;;9.00;60.49
61488;BME280;47351;53.326;-6.298;2022-11-15T16:35:57;98504.73;;;8.92;60.69
61488;BME280;47351;53.326;-6.298;2022-11-15T16:38:47;98507.29;;;8.86;61.13
61488;BME280;47351;53.326;-6.298;2022-11-15T16:41:37;98512.52;;;8.78;61.41
61488;BME280;47351;53.326;-6.298;2022-11-15T16:44:27;98509.70;;;8.71;61.65
61488;BME280;47351;53.326;-6.298;2022-11-15T16:47:18;98505.79;;;8.65;61.98